createdAt,value
2018-02-18T00:01:20.498Z,7.20
2018-02-18T00:02:52.469Z,7.10
2018-02-18T00:04:24.129Z,7.20
2018-02-18T00:05:55.944Z,7.70
2018-02-18T00:07:27.817Z,7.70
2018-02-18T00:08:59.779Z,6.70
2018-02-18T00:10:31.391Z,8.50
2018-02-18T00:12:03.206Z,8.60
2018-02-18T00:13:35.022Z,8.40
2018-02-18T00:15:06.838Z,8.40
2018-02-18T00:16:38.658Z,8.40
2018-02-18T00:18:10.469Z,8.40
2018-02-18T00:19:42.284Z,8.40
2018-02-18T00:21:14.301Z,8.70
2018-02-18T00:22:45.916Z,8.60
2018-02-18T00:24:17.732Z,9.20
2018-02-18T00:25:49.548Z,9.90
2018-02-18T00:27:21.463Z,9.90
2018-02-18T00:28:53.179Z,9.40
2018-02-18T00:30:24.995Z,9.70
2018-02-18T00:31:56.840Z,10.40
2018-02-18T00:33:28.776Z,10.20
2018-02-18T00:35:00.442Z,11.30
2018-02-18T00:36:32.258Z,11.80
2018-02-18T00:38:04.075Z,11.00
2018-02-18T00:39:35.989Z,10.50
2018-02-18T00:41:07.705Z,11.30
2018-02-18T00:42:39.520Z,12.30
2018-02-18T00:44:11.336Z,10.90
2018-02-18T00:45:43.152Z,10.90
2018-02-18T00:47:14.968Z,11.70
2018-02-18T00:48:46.787Z,10.40
2018-02-18T00:50:18.851Z,10.30
2018-02-18T00:51:50.516Z,8.00
2018-02-18T00:53:22.232Z,10.50
2018-02-18T00:54:54.048Z,8.90
2018-02-18T00:56:25.864Z,9.70
2018-02-18T00:57:57.930Z,7.90
2018-02-18T00:59:29.496Z,10.10
2018-02-18T01:01:01.312Z,10.40
2018-02-18T01:02:33.128Z,10.90
2018-02-18T01:04:05.094Z,9.00
2018-02-18T01:05:36.760Z,11.90
2018-02-18T01:07:08.576Z,12.00
2018-02-18T01:08:40.390Z,12.20
2018-02-18T01:10:12.207Z,12.20
2018-02-18T01:11:44.022Z,13.30
2018-02-18T01:13:15.839Z,12.80
2018-02-18T01:14:47.654Z,12.40
2018-02-18T01:16:19.570Z,10.30
2018-02-18T01:17:51.286Z,12.00
2018-02-18T01:19:23.102Z,11.40
2018-02-18T01:20:54.918Z,11.60
2018-02-18T01:22:26.934Z,14.50
2018-02-18T01:23:58.552Z,12.00
2018-02-18T01:25:30.366Z,10.50
2018-02-18T01:27:02.183Z,14.60
2018-02-18T01:28:33.999Z,11.20
2018-02-18T01:30:05.818Z,11.20
2018-02-18T01:31:37.631Z,15.20
2018-02-18T01:33:09.450Z,10.50
2018-02-18T01:34:41.565Z,12.80
2018-02-18T01:36:13.081Z,11.60
2018-02-18T01:37:44.897Z,9.70
2018-02-18T01:39:16.714Z,10.90
2018-02-18T01:40:48.631Z,11.10
2018-02-18T01:42:20.347Z,12.30
2018-02-18T01:43:52.164Z,10.70
2018-02-18T01:45:23.981Z,10.50
2018-02-18T01:46:55.797Z,10.00
2018-02-18T01:48:27.615Z,10.20
2018-02-18T01:49:59.431Z,9.00
2018-02-18T01:51:31.247Z,8.80
2018-02-18T01:53:03.164Z,9.80
2018-02-18T01:54:34.880Z,8.80
2018-02-18T01:56:06.701Z,9.60
2018-02-18T01:57:38.515Z,8.90
2018-02-18T01:59:10.432Z,10.20
2018-02-18T02:00:42.148Z,9.10
2018-02-18T02:02:13.965Z,9.00
2018-02-18T02:03:45.782Z,9.80
2018-02-18T02:05:17.599Z,8.50
2018-02-18T02:06:49.415Z,8.00
2018-02-18T02:08:21.238Z,11.60
2018-02-18T02:09:53.048Z,8.00
2018-02-18T02:11:24.966Z,8.70
2018-02-18T02:12:56.681Z,7.50
2018-02-18T02:14:28.497Z,7.50
2018-02-18T02:16:00.314Z,6.80
2018-02-18T02:17:32.131Z,10.50
2018-02-18T02:19:03.947Z,7.90
2018-02-18T02:20:35.764Z,8.50
2018-02-18T02:22:07.580Z,10.20
2018-02-18T02:23:39.396Z,8.70
2018-02-18T02:25:11.213Z,7.60
2018-02-18T02:26:43.030Z,8.40
2018-02-18T02:28:14.846Z,9.20
2018-02-18T02:29:46.914Z,11.50
2018-02-18T02:31:18.480Z,9.90
2018-02-18T02:32:50.297Z,11.00
2018-02-18T02:34:22.113Z,11.00
2018-02-18T02:35:54.079Z,9.40
2018-02-18T02:37:25.747Z,9.70
2018-02-18T02:38:57.564Z,11.40
2018-02-18T02:40:29.379Z,9.20
2018-02-18T02:42:01.194Z,10.80
2018-02-18T02:43:33.014Z,12.60
2018-02-18T02:45:04.928Z,12.50
2018-02-18T02:46:36.645Z,11.40
2018-02-18T02:48:08.562Z,13.00
2018-02-18T02:49:40.287Z,13.70
2018-02-18T02:51:12.102Z,13.80
2018-02-18T02:52:43.909Z,15.20
2018-02-18T02:54:15.880Z,14.00
2018-02-18T02:55:47.543Z,12.50
2018-02-18T02:57:19.359Z,12.10
2018-02-18T02:58:51.175Z,11.00
2018-02-18T03:00:23.092Z,13.60
2018-02-18T03:01:54.811Z,14.50
2018-02-18T03:03:26.623Z,13.30
2018-02-18T03:04:58.721Z,14.40
2018-02-18T03:06:30.358Z,15.00
2018-02-18T03:08:02.074Z,14.70
2018-02-18T03:09:33.889Z,12.30
2018-02-18T03:11:05.705Z,13.30
2018-02-18T03:12:37.522Z,15.20
2018-02-18T03:14:09.337Z,16.30
2018-02-18T03:15:41.154Z,14.10
2018-02-18T03:17:12.971Z,14.00
2018-02-18T03:18:44.788Z,15.40
2018-02-18T03:20:16.604Z,16.10
2018-02-18T03:21:48.428Z,15.50
2018-02-18T03:23:20.237Z,13.80
2018-02-18T03:24:52.254Z,14.70
2018-02-18T03:26:23.870Z,13.10
2018-02-18T03:27:55.687Z,17.30
2018-02-18T03:29:27.503Z,15.90
2018-02-18T03:30:59.421Z,16.00
2018-02-18T03:32:31.136Z,15.30
2018-02-18T03:34:02.952Z,19.70
2018-02-18T03:35:34.768Z,20.00
2018-02-18T03:37:06.586Z,18.70
2018-02-18T03:38:38.402Z,17.10
2018-02-18T03:40:10.218Z,15.30
2018-02-18T03:41:42.035Z,17.60
2018-02-18T03:43:13.953Z,16.40
2018-02-18T03:44:45.668Z,16.10
2018-02-18T03:46:17.484Z,18.30
2018-02-18T03:47:49.300Z,17.70
2018-02-18T03:49:21.120Z,18.50
2018-02-18T03:50:52.933Z,19.30
2018-02-18T03:52:24.750Z,17.70
2018-02-18T03:53:56.565Z,20.60
2018-02-18T03:55:28.480Z,21.60
2018-02-18T03:57:00.196Z,22.20
2018-02-18T03:58:32.064Z,21.10
2018-02-18T04:00:03.828Z,20.20
2018-02-18T04:01:35.895Z,21.90
2018-02-18T04:03:07.460Z,19.60
2018-02-18T04:04:39.276Z,19.50
2018-02-18T04:06:11.092Z,18.90
2018-02-18T04:07:42.909Z,18.70
2018-02-18T04:09:14.725Z,16.60
2018-02-18T04:10:46.541Z,17.90
2018-02-18T04:12:18.357Z,14.20
2018-02-18T04:13:50.173Z,13.80
2018-02-18T04:15:21.999Z,15.70
2018-02-18T04:16:53.806Z,15.20
2018-02-18T04:18:25.622Z,12.50
2018-02-18T04:19:57.538Z,14.20
2018-02-18T04:21:29.255Z,13.80
2018-02-18T04:23:01.071Z,10.60
2018-02-18T04:24:32.886Z,13.00
2018-02-18T04:26:04.803Z,11.50
2018-02-18T04:27:36.519Z,11.50
2018-02-18T04:29:08.335Z,10.40
2018-02-18T04:30:40.151Z,12.10
2018-02-18T04:32:12.079Z,10.00
2018-02-18T04:33:43.783Z,10.50
2018-02-18T04:35:15.599Z,6.90
2018-02-18T04:36:47.415Z,11.10
2018-02-18T04:38:19.581Z,10.50
2018-02-18T04:39:51.049Z,9.30
2018-02-18T04:41:22.864Z,11.30
2018-02-18T04:42:54.679Z,10.00
2018-02-18T04:44:26.646Z,10.70
2018-02-18T04:45:58.311Z,9.60
2018-02-18T04:47:30.128Z,9.20
2018-02-18T04:49:01.943Z,10.50
2018-02-18T04:50:33.759Z,10.70
2018-02-18T04:52:05.575Z,11.40
2018-02-18T04:53:37.394Z,9.10
2018-02-18T04:55:09.208Z,10.70
2018-02-18T04:56:41.223Z,12.10
2018-02-18T04:58:12.840Z,15.90
2018-02-18T04:59:44.654Z,16.10
2018-02-18T05:01:16.470Z,14.00
2018-02-18T05:02:48.436Z,16.50
2018-02-18T05:04:20.102Z,18.90
2018-02-18T05:05:51.918Z,18.10
2018-02-18T05:07:23.734Z,25.50
2018-02-18T05:08:55.698Z,23.10
2018-02-18T05:10:27.364Z,29.10
2018-02-18T05:11:59.180Z,33.40
2018-02-18T05:13:30.995Z,36.30
2018-02-18T05:15:02.911Z,36.90
2018-02-18T05:16:34.627Z,33.30
2018-02-18T05:18:06.442Z,37.40
2018-02-18T05:19:38.258Z,39.70
2018-02-18T05:21:10.174Z,37.50
2018-02-18T05:22:41.889Z,35.50
2018-02-18T05:24:13.705Z,36.90
2018-02-18T05:25:45.521Z,38.10
2018-02-18T05:27:17.438Z,39.60
2018-02-18T05:28:49.152Z,34.50
2018-02-18T05:30:20.968Z,32.10
2018-02-18T05:31:52.784Z,33.80
2018-02-18T05:33:24.800Z,35.00
2018-02-18T05:34:56.416Z,30.10
2018-02-18T05:36:28.231Z,30.20
2018-02-18T05:38:00.048Z,30.60
2018-02-18T05:39:31.865Z,31.20
2018-02-18T05:41:03.679Z,33.70
2018-02-18T05:42:35.495Z,29.60
2018-02-18T05:44:07.311Z,32.30
2018-02-18T05:45:39.127Z,28.90
2018-02-18T05:47:10.943Z,27.50
2018-02-18T05:48:42.759Z,28.70
2018-02-18T05:50:14.584Z,30.80
2018-02-18T05:51:46.492Z,27.40
2018-02-18T05:53:18.209Z,34.50
2018-02-18T05:54:50.023Z,35.30
2018-02-18T05:56:21.839Z,35.30
2018-02-18T05:57:53.755Z,41.50
2018-02-18T05:59:25.471Z,31.10
2018-02-18T06:00:57.287Z,27.60
2018-02-18T06:02:29.105Z,27.80
2018-02-18T06:04:00.918Z,30.40
2018-02-18T06:05:32.738Z,32.90
2018-02-18T06:07:04.550Z,33.60
2018-02-18T06:08:36.365Z,28.70
2018-02-18T06:10:08.283Z,29.30
2018-02-18T06:11:39.998Z,34.00
2018-02-18T06:13:11.813Z,30.40
2018-02-18T06:14:43.629Z,29.60
2018-02-18T06:16:15.445Z,32.00
2018-02-18T06:17:47.261Z,30.70
2018-02-18T06:19:19.077Z,24.80
2018-02-18T06:20:50.893Z,28.80
2018-02-18T06:22:22.709Z,29.40
2018-02-18T06:23:54.524Z,30.80
2018-02-18T06:25:26.341Z,29.50
2018-02-18T06:26:58.156Z,31.30
2018-02-18T06:28:30.174Z,25.40
2018-02-18T06:30:01.788Z,31.50
2018-02-18T06:31:33.604Z,37.10
2018-02-18T06:33:05.419Z,35.90
2018-02-18T06:34:37.235Z,33.60
2018-02-18T06:36:09.051Z,31.70
2018-02-18T06:37:40.867Z,30.70
2018-02-18T06:39:12.683Z,28.70
2018-02-18T06:40:44.649Z,27.10
2018-02-18T06:42:16.319Z,26.50
2018-02-18T06:43:48.131Z,28.30
2018-02-18T06:45:19.947Z,27.30
2018-02-18T06:46:51.864Z,31.40
2018-02-18T06:48:23.580Z,31.90
2018-02-18T06:49:55.396Z,28.80
2018-02-18T06:51:27.212Z,36.90
2018-02-18T06:52:59.029Z,31.80
2018-02-18T06:54:30.845Z,33.50
2018-02-18T06:56:02.660Z,36.00
2018-02-18T06:57:34.476Z,37.00
2018-02-18T06:59:06.292Z,39.20
2018-02-18T07:00:38.109Z,37.50
2018-02-18T07:02:09.924Z,37.20
2018-02-18T07:03:41.740Z,37.60
2018-02-18T07:05:13.756Z,37.50
2018-02-18T07:06:45.372Z,31.70
2018-02-18T07:08:17.189Z,34.00
2018-02-18T07:09:49.038Z,37.80
2018-02-18T07:11:20.972Z,33.50
2018-02-18T07:12:52.635Z,33.80
2018-02-18T07:14:24.455Z,32.20
2018-02-18T07:15:56.270Z,34.40
2018-02-18T07:17:28.088Z,32.10
2018-02-18T07:18:59.900Z,36.80
2018-02-18T07:20:31.715Z,30.80
2018-02-18T07:22:03.531Z,37.90
2018-02-18T07:23:35.451Z,36.80
2018-02-18T07:25:07.202Z,36.60
2018-02-18T07:26:38.979Z,30.80
2018-02-18T07:28:10.797Z,35.00
2018-02-18T07:29:42.611Z,37.90
2018-02-18T07:31:14.428Z,40.90
2018-02-18T07:32:46.246Z,45.80
2018-02-18T07:34:18.059Z,43.80
2018-02-18T07:35:49.976Z,39.00
2018-02-18T07:37:21.715Z,49.10
2018-02-18T07:38:53.510Z,44.20
2018-02-18T07:40:25.325Z,44.70
2018-02-18T07:41:57.241Z,48.60
2018-02-18T07:43:28.961Z,43.60
2018-02-18T07:45:00.773Z,46.10
2018-02-18T07:46:32.589Z,56.00
2018-02-18T07:48:04.406Z,63.20
2018-02-18T07:49:36.220Z,55.40
2018-02-18T07:51:08.036Z,44.10
2018-02-18T07:52:40.055Z,60.30
2018-02-18T07:54:11.668Z,58.80
2018-02-18T07:55:43.484Z,54.60
2018-02-18T07:57:15.300Z,54.40
2018-02-18T07:58:47.116Z,53.10
2018-02-18T08:00:19.036Z,51.10
2018-02-18T08:01:50.748Z,50.30
2018-02-18T08:03:22.564Z,61.20
2018-02-18T08:04:54.380Z,63.80
2018-02-18T08:06:26.196Z,76.40
2018-02-18T08:07:58.012Z,64.70
2018-02-18T08:09:29.828Z,58.00
2018-02-18T08:11:01.646Z,53.50
2018-02-18T08:12:33.458Z,48.90
2018-02-18T08:14:05.275Z,55.70
2018-02-18T08:15:37.090Z,35.40
2018-02-18T08:17:08.907Z,36.50
2018-02-18T08:18:40.823Z,40.40
2018-02-18T08:20:12.539Z,38.00
2018-02-18T08:21:44.353Z,45.30
2018-02-18T08:23:16.171Z,35.20
2018-02-18T08:24:47.985Z,35.40
2018-02-18T08:26:19.801Z,34.80
2018-02-18T08:27:51.617Z,36.30
2018-02-18T08:29:23.433Z,32.50
2018-02-18T08:30:55.349Z,30.70
2018-02-18T08:32:27.069Z,35.50
2018-02-18T08:33:58.881Z,39.10
2018-02-18T08:35:30.699Z,38.20
2018-02-18T08:37:02.766Z,43.40
2018-02-18T08:38:34.330Z,36.40
2018-02-18T08:40:06.145Z,49.30
2018-02-18T08:41:37.961Z,56.60
2018-02-18T08:43:09.927Z,38.00
2018-02-18T08:44:41.593Z,49.80
2018-02-18T08:46:13.409Z,51.10
2018-02-18T08:47:45.225Z,53.70
2018-02-18T08:49:17.042Z,54.90
2018-02-18T08:50:48.856Z,69.10
2018-02-18T08:52:20.672Z,81.00
2018-02-18T08:53:52.487Z,77.20
2018-02-18T08:55:24.401Z,90.00
2018-02-18T08:56:56.117Z,92.60
2018-02-18T08:58:27.937Z,82.50
2018-02-18T08:59:59.747Z,80.80
2018-02-18T09:01:31.662Z,88.50
2018-02-18T09:03:03.377Z,75.00
2018-02-18T09:04:35.192Z,72.90
2018-02-18T09:06:07.007Z,74.00
2018-02-18T09:07:38.821Z,74.70
2018-02-18T09:09:10.636Z,74.50
2018-02-18T09:10:42.450Z,78.30
2018-02-18T09:12:14.265Z,71.40
2018-02-18T09:13:46.180Z,69.90
2018-02-18T09:15:17.895Z,75.10
2018-02-18T09:16:49.708Z,70.10
2018-02-18T09:18:21.523Z,72.70
2018-02-18T09:19:53.488Z,64.40
2018-02-18T09:21:25.152Z,69.00
2018-02-18T09:22:56.967Z,69.70
2018-02-18T09:24:28.782Z,65.20
2018-02-18T09:26:00.597Z,60.80
2018-02-18T09:27:32.412Z,55.80
2018-02-18T09:29:04.227Z,55.30
2018-02-18T09:30:36.041Z,53.90
2018-02-18T09:32:08.107Z,49.70
2018-02-18T09:33:39.672Z,49.30
2018-02-18T09:35:11.486Z,47.50
2018-02-18T09:36:43.301Z,46.00
2018-02-18T09:38:15.216Z,47.00
2018-02-18T09:39:46.930Z,48.30
2018-02-18T09:41:18.746Z,50.80
2018-02-18T09:42:50.560Z,47.30
2018-02-18T09:44:22.376Z,40.00
2018-02-18T09:45:54.190Z,39.60
2018-02-18T09:47:26.005Z,44.10
2018-02-18T09:48:57.820Z,43.60
2018-02-18T09:50:29.736Z,39.90
2018-02-18T09:52:01.453Z,37.20
2018-02-18T09:53:33.265Z,49.80
2018-02-18T09:55:05.080Z,41.50
2018-02-18T09:56:36.896Z,35.70
2018-02-18T09:58:08.714Z,42.70
2018-02-18T09:59:40.529Z,38.40
2018-02-18T10:01:12.346Z,36.10
2018-02-18T10:02:44.258Z,39.70
2018-02-18T10:04:15.976Z,38.40
2018-02-18T10:05:47.790Z,39.90
2018-02-18T10:07:19.606Z,43.60
2018-02-18T10:08:51.522Z,40.10
2018-02-18T10:10:23.239Z,43.00
2018-02-18T10:11:55.054Z,39.20
2018-02-18T10:13:26.872Z,44.90
2018-02-18T10:14:58.836Z,44.00
2018-02-18T10:16:30.504Z,42.40
2018-02-18T10:18:02.320Z,39.30
2018-02-18T10:19:34.136Z,42.60
2018-02-18T10:21:05.955Z,39.90
2018-02-18T10:22:37.770Z,38.10
2018-02-18T10:24:09.589Z,40.60
2018-02-18T10:25:41.407Z,39.90
2018-02-18T10:27:13.320Z,39.00
2018-02-18T10:28:45.034Z,37.90
2018-02-18T10:30:16.850Z,33.40
2018-02-18T10:31:48.672Z,35.50
2018-02-18T10:33:20.588Z,33.20
2018-02-18T10:34:52.299Z,32.70
2018-02-18T10:36:24.116Z,27.60
2018-02-18T10:37:55.932Z,29.00
2018-02-18T10:39:27.748Z,31.40
2018-02-18T10:40:59.567Z,27.40
2018-02-18T10:42:31.381Z,26.60
2018-02-18T10:44:03.198Z,26.90
2018-02-18T10:45:35.265Z,29.40
2018-02-18T10:47:06.831Z,27.70
2018-02-18T10:48:38.648Z,25.60
2018-02-18T10:50:10.464Z,21.70
2018-02-18T10:51:42.281Z,21.60
2018-02-18T10:53:14.098Z,19.90
2018-02-18T10:54:45.915Z,24.00
2018-02-18T10:56:17.732Z,22.40
2018-02-18T10:57:49.549Z,22.00
2018-02-18T10:59:21.365Z,20.50
2018-02-18T11:00:53.185Z,19.80
2018-02-18T11:02:25.000Z,21.20
2018-02-18T11:03:57.018Z,19.90
2018-02-18T11:05:28.635Z,18.40
2018-02-18T11:07:00.452Z,16.70
2018-02-18T11:08:32.270Z,16.20
2018-02-18T11:10:04.188Z,20.20
2018-02-18T11:11:35.905Z,19.30
2018-02-18T11:13:07.723Z,18.30
2018-02-18T11:14:39.541Z,17.90
2018-02-18T11:16:11.508Z,18.70
2018-02-18T11:17:43.218Z,17.20
2018-02-18T11:19:14.993Z,16.40
2018-02-18T11:20:46.810Z,16.70
2018-02-18T11:22:18.728Z,17.50
2018-02-18T11:23:50.447Z,17.90
2018-02-18T11:25:22.262Z,18.90
2018-02-18T11:26:54.079Z,16.90
2018-02-18T11:28:25.897Z,18.20
2018-02-18T11:29:57.738Z,16.50
2018-02-18T11:31:29.533Z,17.20
2018-02-18T11:33:01.351Z,16.60
2018-02-18T11:34:33.269Z,16.40
2018-02-18T11:36:04.986Z,18.40
2018-02-18T11:37:36.805Z,18.70
2018-02-18T11:39:08.623Z,18.80
2018-02-18T11:40:40.641Z,18.20
2018-02-18T11:42:12.330Z,19.60
2018-02-18T11:43:44.078Z,14.70
2018-02-18T11:46:47.716Z,16.10
2018-02-18T11:48:19.536Z,15.30
2018-02-18T11:49:51.354Z,16.50
2018-02-18T11:51:23.174Z,17.30
2018-02-18T11:52:55.042Z,17.10
2018-02-18T11:54:26.813Z,14.80
2018-02-18T11:55:58.632Z,16.70
2018-02-18T11:57:30.455Z,16.20
2018-02-18T11:59:02.371Z,15.10
2018-02-18T12:00:34.090Z,14.60
2018-02-18T12:02:05.909Z,14.90
2018-02-18T12:03:37.729Z,15.20
2018-02-18T12:05:09.649Z,13.60
2018-02-18T12:06:41.368Z,14.90
2018-02-18T12:08:13.188Z,13.80
2018-02-18T12:09:45.007Z,10.70
2018-02-18T12:11:16.828Z,10.60
2018-02-18T12:12:48.646Z,11.00
2018-02-18T12:14:20.466Z,11.90
2018-02-18T12:15:52.285Z,11.10
2018-02-18T12:17:24.355Z,10.90
2018-02-18T12:18:55.924Z,11.10
2018-02-18T12:20:27.744Z,11.30
2018-02-18T12:21:59.869Z,11.50
2018-02-18T12:23:31.383Z,10.70
2018-02-18T12:25:03.202Z,10.70
2018-02-18T12:26:35.022Z,10.30
2018-02-18T12:28:06.853Z,10.10
2018-02-18T12:29:38.662Z,10.30
2018-02-18T12:31:10.482Z,10.70
2018-02-18T12:32:42.302Z,9.60
2018-02-18T12:34:14.127Z,10.50
2018-02-18T12:35:46.149Z,10.50
2018-02-18T12:37:17.777Z,9.50
2018-02-18T12:38:49.594Z,9.60
2018-02-18T12:40:21.409Z,9.40
2018-02-18T12:41:53.231Z,9.90
2018-02-18T12:43:25.053Z,9.50
2018-02-18T12:44:56.896Z,10.00
2018-02-18T12:46:28.699Z,10.50
2018-02-18T12:48:00.521Z,10.10
2018-02-18T12:49:32.343Z,9.60
2018-02-18T12:51:04.169Z,9.90
2018-02-18T12:52:35.992Z,10.40
2018-02-18T12:54:07.912Z,11.20
2018-02-18T12:55:40.155Z,10.90
2018-02-18T12:57:11.456Z,10.50
2018-02-18T12:58:43.278Z,10.00
2018-02-18T13:00:15.105Z,9.30
2018-02-18T13:01:46.922Z,9.10
2018-02-18T13:03:18.745Z,9.40
2018-02-18T13:04:50.567Z,9.50
2018-02-18T13:06:22.490Z,9.40
2018-02-18T13:07:54.213Z,10.60
2018-02-18T13:09:26.036Z,11.70
2018-02-18T13:12:29.944Z,11.70
2018-02-18T13:14:01.505Z,11.70
2018-02-18T13:15:33.326Z,9.90
2018-02-18T13:17:05.149Z,9.80
2018-02-18T13:18:37.121Z,10.50
2018-02-18T13:20:08.793Z,9.50
2018-02-18T13:21:40.616Z,10.10
2018-02-18T13:23:12.440Z,10.10
2018-02-18T13:24:44.262Z,9.80
2018-02-18T13:26:16.084Z,9.70
2018-02-18T13:27:47.917Z,9.60
2018-02-18T13:29:19.732Z,9.90
2018-02-18T13:30:51.655Z,9.30
2018-02-18T13:32:23.379Z,11.20
2018-02-18T13:33:55.203Z,9.60
2018-02-18T13:35:27.025Z,11.00
2018-02-18T13:36:58.851Z,10.00
2018-02-18T13:38:30.674Z,9.50
2018-02-18T13:40:02.501Z,9.10
2018-02-18T13:41:34.323Z,9.30
2018-02-18T13:43:06.149Z,9.70
2018-02-18T13:44:37.972Z,8.90
2018-02-18T13:46:09.997Z,9.10
2018-02-18T13:47:42.529Z,9.00
2018-02-18T13:49:14.065Z,9.50
2018-02-18T13:50:45.266Z,9.90
2018-02-18T13:52:17.091Z,9.20
2018-02-18T13:53:48.913Z,9.20
2018-02-18T13:55:20.737Z,8.80
2018-02-18T13:56:52.559Z,10.10
2018-02-18T13:58:24.382Z,9.00
2018-02-18T13:59:56.205Z,9.70
2018-02-18T14:01:28.029Z,8.30
2018-02-18T14:04:31.677Z,7.90
2018-02-18T14:06:03.499Z,6.70
2018-02-18T14:07:35.879Z,7.60
2018-02-18T14:09:07.152Z,6.90
2018-02-18T14:10:38.970Z,6.60
2018-02-18T14:12:10.797Z,5.20
2018-02-18T14:13:42.619Z,5.20
2018-02-18T14:15:14.443Z,5.10
2018-02-18T14:16:46.268Z,5.10
2018-02-18T14:18:18.092Z,4.70
2018-02-18T14:19:49.917Z,5.10
2018-02-18T14:21:21.741Z,5.40
2018-02-18T14:22:53.870Z,5.30
2018-02-18T14:24:25.392Z,4.90
2018-02-18T14:25:57.317Z,4.80
2018-02-18T14:27:29.041Z,4.40
2018-02-18T14:29:00.866Z,4.40
2018-02-18T14:30:32.691Z,5.30
2018-02-18T14:32:04.515Z,5.00
2018-02-18T14:33:36.340Z,6.80
2018-02-18T14:35:08.166Z,4.90
2018-02-18T14:36:39.991Z,5.40
2018-02-18T14:38:11.965Z,5.00
2018-02-18T14:39:43.639Z,4.80
2018-02-18T14:41:15.463Z,4.70
2018-02-18T14:42:47.288Z,4.70
2018-02-18T14:44:19.313Z,5.00
2018-02-18T14:45:50.937Z,5.00
2018-02-18T14:47:22.764Z,5.10
2018-02-18T14:48:54.586Z,6.20
2018-02-18T14:50:26.415Z,5.60
2018-02-18T14:51:58.236Z,5.30
2018-02-18T14:53:30.061Z,6.20
2018-02-18T14:56:33.708Z,6.00
2018-02-18T14:58:05.838Z,6.20
2018-02-18T14:59:37.355Z,6.00
2018-02-18T15:01:09.179Z,5.50
2018-02-18T15:02:41.105Z,5.80
2018-02-18T15:04:12.830Z,5.30
2018-02-18T15:05:44.649Z,6.30
2018-02-18T15:07:16.477Z,7.20
2018-02-18T15:08:48.397Z,5.60
2018-02-18T15:10:20.120Z,5.90
2018-02-18T15:11:51.961Z,6.00
2018-02-18T15:13:23.967Z,5.30
2018-02-18T15:14:55.893Z,5.50
2018-02-18T15:16:27.412Z,6.00
2018-02-18T15:17:59.235Z,5.20
2018-02-18T15:19:31.057Z,5.10
2018-02-18T15:21:02.980Z,5.10
2018-02-18T15:22:34.702Z,4.90
2018-02-18T15:24:06.525Z,4.30
2018-02-18T15:25:38.347Z,3.50
2018-02-18T15:27:10.171Z,3.50
2018-02-18T15:28:41.991Z,2.80
2018-02-18T15:31:45.634Z,3.40
2018-02-18T15:33:17.459Z,3.30
2018-02-18T15:34:49.278Z,3.60
2018-02-18T15:36:21.099Z,3.90
2018-02-18T15:37:52.928Z,4.20
2018-02-18T15:39:24.943Z,4.30
2018-02-18T15:40:56.566Z,5.30
2018-02-18T15:42:28.386Z,5.70
2018-02-18T15:44:00.208Z,6.40
2018-02-18T15:45:32.031Z,5.50
2018-02-18T15:48:35.675Z,5.30
2018-02-18T15:50:07.499Z,4.60
2018-02-18T15:51:39.323Z,4.70
2018-02-18T15:53:11.142Z,4.20
2018-02-18T15:54:42.966Z,4.40
2018-02-18T15:56:14.786Z,4.00
2018-02-18T15:57:46.708Z,3.90
2018-02-18T15:59:18.431Z,3.70
2018-02-18T16:00:50.253Z,3.50
2018-02-18T16:02:22.078Z,3.70
2018-02-18T16:03:53.897Z,3.70
2018-02-18T16:05:25.720Z,3.40
2018-02-18T16:06:57.850Z,3.40
2018-02-18T16:08:29.364Z,3.30
2018-02-18T16:10:01.287Z,3.40
2018-02-18T16:11:33.008Z,3.60
2018-02-18T16:13:04.830Z,3.40
2018-02-18T16:14:36.659Z,3.50
2018-02-18T16:16:08.576Z,3.60
2018-02-18T16:17:40.298Z,3.20
2018-02-18T16:19:12.120Z,3.90
2018-02-18T16:20:43.943Z,3.90
2018-02-18T16:22:15.767Z,3.70
2018-02-18T16:23:48.111Z,3.90
2018-02-18T16:25:19.410Z,4.00
2018-02-18T16:26:51.232Z,4.40
2018-02-18T16:28:23.054Z,4.30
2018-02-18T16:29:54.886Z,4.30
2018-02-18T16:31:26.700Z,4.80
2018-02-18T16:32:58.520Z,4.70
2018-02-18T16:34:30.443Z,5.00
2018-02-18T16:36:02.166Z,4.10
2018-02-18T16:37:33.986Z,4.20
2018-02-18T16:40:37.734Z,4.90
2018-02-18T16:42:09.452Z,5.50
2018-02-18T16:43:41.276Z,6.70
2018-02-18T16:45:13.101Z,5.60
2018-02-18T16:46:44.920Z,5.00
2018-02-18T16:48:16.742Z,4.40
2018-02-18T16:49:48.565Z,5.80
2018-02-18T16:51:20.387Z,7.60
2018-02-18T16:52:53.113Z,7.30
2018-02-18T16:54:24.052Z,6.90
2018-02-18T16:57:27.718Z,5.10
2018-02-18T16:59:00.026Z,3.90
2018-02-18T17:00:31.324Z,4.40
2018-02-18T17:02:03.147Z,3.70
2018-02-18T17:03:34.969Z,4.00
2018-02-18T17:05:06.791Z,4.00
2018-02-18T17:06:38.614Z,3.90
2018-02-18T17:08:10.436Z,3.90
2018-02-18T17:09:42.258Z,4.00
2018-02-18T17:11:14.281Z,4.40
2018-02-18T17:12:45.905Z,4.20
2018-02-18T17:14:17.930Z,3.00
2018-02-18T17:15:49.855Z,3.60
2018-02-18T17:17:21.372Z,4.00
2018-02-18T17:18:53.199Z,4.60
2018-02-18T17:20:25.025Z,4.40
2018-02-18T17:21:56.842Z,3.90
2018-02-18T17:23:28.666Z,4.30
2018-02-18T17:25:00.490Z,3.80
2018-02-18T17:26:32.314Z,4.00
2018-02-18T17:28:04.137Z,3.90
2018-02-18T17:29:36.061Z,3.50
2018-02-18T17:32:39.609Z,3.60
2018-02-18T17:34:11.432Z,3.60
2018-02-18T17:35:43.356Z,4.70
2018-02-18T17:37:15.079Z,4.80
2018-02-18T17:38:46.903Z,4.70
2018-02-18T17:40:18.726Z,4.70
2018-02-18T17:41:50.650Z,4.50
2018-02-18T17:43:22.371Z,4.60
2018-02-18T17:44:54.196Z,4.20
2018-02-18T17:46:26.025Z,4.20
2018-02-18T17:49:29.970Z,4.90
2018-02-18T17:51:01.491Z,4.40
2018-02-18T17:52:33.315Z,3.60
2018-02-18T17:54:05.139Z,4.00
2018-02-18T17:55:36.964Z,4.60
2018-02-18T17:57:08.787Z,3.90
2018-02-18T17:58:40.611Z,4.20
2018-02-18T18:00:12.435Z,4.30
2018-02-18T18:01:44.259Z,4.30
2018-02-18T18:03:16.083Z,4.50
2018-02-18T18:04:47.907Z,4.60
2018-02-18T18:06:19.935Z,4.40
2018-02-18T18:07:51.655Z,4.30
2018-02-18T18:09:23.389Z,4.40
2018-02-18T18:10:55.206Z,4.20
2018-02-18T18:12:27.026Z,4.40
2018-02-18T18:13:58.853Z,4.50
2018-02-18T18:15:30.675Z,4.60
2018-02-18T18:17:02.501Z,4.10
2018-02-18T18:18:34.324Z,4.70
2018-02-18T18:20:06.146Z,5.30
2018-02-18T18:21:37.971Z,4.80
2018-02-18T18:24:41.619Z,4.30
2018-02-18T18:26:13.846Z,5.00
2018-02-18T18:27:45.266Z,4.20
2018-02-18T18:29:17.090Z,4.30
2018-02-18T18:30:48.913Z,5.10
2018-02-18T18:32:20.737Z,4.50
2018-02-18T18:33:52.561Z,4.50
2018-02-18T18:35:24.383Z,4.70
2018-02-18T18:36:56.206Z,4.10
2018-02-18T18:38:28.029Z,4.30
2018-02-18T18:41:31.677Z,4.60
2018-02-18T18:43:03.801Z,4.90
2018-02-18T18:44:35.876Z,5.10
2018-02-18T18:46:07.142Z,5.60
2018-02-18T18:47:38.965Z,5.20
2018-02-18T18:49:10.787Z,4.40
2018-02-18T18:50:42.609Z,4.80
2018-02-18T18:52:14.430Z,3.90
2018-02-18T18:53:46.253Z,4.40
2018-02-18T18:55:18.075Z,3.90
2018-02-18T18:56:49.900Z,3.20
2018-02-18T18:58:21.921Z,3.50
2018-02-18T18:59:53.843Z,3.60
2018-02-18T19:01:25.362Z,2.70
2018-02-18T19:02:57.283Z,2.80
2018-02-18T19:04:29.003Z,4.10
2018-02-18T19:06:00.825Z,3.10
2018-02-18T19:07:32.651Z,3.10
2018-02-18T19:09:04.468Z,3.00
2018-02-18T19:10:36.289Z,2.90
2018-02-18T19:12:08.110Z,3.00
2018-02-18T19:13:39.931Z,2.40
2018-02-18T19:15:11.852Z,2.60
2018-02-18T19:16:43.576Z,2.60
2018-02-18T19:18:15.398Z,2.90
2018-02-18T19:19:47.215Z,3.10
2018-02-18T19:21:19.286Z,2.80
2018-02-18T19:22:50.857Z,3.70
2018-02-18T19:24:22.694Z,2.80
2018-02-18T19:25:54.499Z,3.30
2018-02-18T19:27:26.378Z,3.20
2018-02-18T19:28:58.142Z,3.00
2018-02-18T19:30:30.018Z,3.10
2018-02-18T19:33:33.604Z,2.50
2018-02-18T19:35:05.425Z,2.10
2018-02-18T19:36:37.247Z,2.30
2018-02-18T19:38:09.069Z,1.90
2018-02-18T19:39:41.004Z,1.80
2018-02-18T19:41:12.708Z,1.90
2018-02-18T19:42:44.530Z,2.90
2018-02-18T19:44:16.350Z,2.00
2018-02-18T19:45:48.171Z,2.20
2018-02-18T19:47:19.994Z,2.50
2018-02-18T19:50:23.638Z,2.00
2018-02-18T19:51:56.254Z,2.30
2018-02-18T19:53:27.273Z,2.10
2018-02-18T19:54:59.093Z,2.10
2018-02-18T19:56:30.914Z,1.80
2018-02-18T19:58:02.836Z,1.80
2018-02-18T19:59:34.556Z,2.10
2018-02-18T20:01:06.376Z,2.30
2018-02-18T20:02:38.196Z,2.20
2018-02-18T20:04:10.017Z,2.00
2018-02-18T20:07:13.659Z,2.20
2018-02-18T20:08:46.001Z,2.80
2018-02-18T20:10:17.399Z,2.50
2018-02-18T20:11:49.119Z,2.40
2018-02-18T20:13:20.940Z,2.30
2018-02-18T20:14:52.760Z,2.10
2018-02-18T20:16:24.682Z,2.20
2018-02-18T20:17:56.401Z,2.70
2018-02-18T20:19:28.219Z,3.50
2018-02-18T20:21:00.040Z,2.00
2018-02-18T20:22:32.010Z,2.80